Time;durP1;ratioP1;P1;durP2;ratioP2;P2;SDS_P1;SDS_P2;PMS_P1;PMS_P2;Temp;Humidity;BMP_temperature;BMP_pressure;BME280_temperature;BME280_humidity;BME280_pressure;Samples;Min_cycle;Max_cycle;Signal;HPM_P1;HPM_P2
2023/05/04 00:02:19;;;;;;;1.50;1.20;;;12.30;99.90;;;;;;4983258;28;20465;-73
2023/05/04 00:04:45;;;;;;;2.80;1.30;;;12.30;99.90;;;;;;4955818;28;20478;-73
2023/05/04 00:07:12;;;;;;;1.70;1.30;;;12.40;99.90;;;;;;4960093;28;20418;-73
2023/05/04 00:09:38;;;;;;;3.22;1.40;;;12.40;99.90;;;;;;4973137;28;20435;-74
2023/05/04 00:12:07;;;;;;;1.58;1.10;;;12.40;99.90;;;;;;4957676;28;20443;-73
2023/05/04 00:14:33;;;;;;;2.37;1.33;;;12.50;99.90;;;;;;4959174;28;20444;-73
2023/05/04 00:17:00;;;;;;;4.03;1.40;;;12.60;99.90;;;;;;4956117;28;20462;-73
2023/05/04 00:19:26;;;;;;;2.00;1.10;;;12.70;99.90;;;;;;4954212;28;20504;-73
2023/05/04 00:21:52;;;;;;;2.47;1.35;;;12.70;99.90;;;;;;4957275;28;20429;-73
2023/05/04 00:24:19;;;;;;;2.72;1.38;;;12.50;99.90;;;;;;4958355;28;20414;-73
2023/05/04 00:26:45;;;;;;;2.08;1.10;;;12.50;99.90;;;;;;4959739;28;20420;-73
2023/05/04 00:29:11;;;;;;;1.80;1.10;;;12.60;99.90;;;;;;4958635;28;20449;-73
2023/05/04 00:31:37;;;;;;;2.05;1.20;;;12.60;99.90;;;;;;4958199;28;20862;-73
2023/05/04 00:34:03;;;;;;;1.60;1.23;;;12.80;99.90;;;;;;4963116;28;20424;-73
2023/05/04 00:36:30;;;;;;;1.52;1.20;;;12.80;99.90;;;;;;4954815;28;20432;-73
2023/05/04 00:38:56;;;;;;;1.58;1.10;;;12.60;99.90;;;;;;4954648;28;20467;-73
2023/05/04 00:41:22;;;;;;;2.17;1.35;;;12.40;99.90;;;;;;4975085;28;20930;-73
2023/05/04 00:43:48;;;;;;;1.50;1.17;;;12.40;99.90;;;;;;4960490;28;21203;-73
2023/05/04 00:46:15;;;;;;;2.65;1.30;;;12.20;99.90;;;;;;4956637;28;20423;-73
2023/05/04 00:48:45;;;;;;;1.73;1.20;;;12.10;99.90;;;;;;4956019;28;20836;-73
2023/05/04 00:51:15;;;;;;;1.50;1.10;;;12.10;99.90;;;;;;4982355;28;20437;-73
2023/05/04 00:53:42;;;;;;;2.00;1.25;;;12.10;99.90;;;;;;4954637;28;20641;-74
2023/05/04 00:56:09;;;;;;;3.15;1.20;;;12.10;99.90;;;;;;4959447;28;20423;-73
2023/05/04 00:58:37;;;;;;;1.75;1.20;;;12.10;99.90;;;;;;4955308;28;20891;-73
2023/05/04 01:01:05;;;;;;;1.52;1.30;;;12.00;99.90;;;;;;4972779;28;20519;-73
2023/05/04 01:03:32;;;;;;;1.73;1.17;;;12.00;99.90;;;;;;4958911;28;20418;-73
2023/05/04 01:06:57;;;;;;;1.67;1.20;;;12.00;99.90;;;;;;4957513;28;20452;-73
2023/05/04 01:09:42;;;;;;;2.83;1.30;;;12.10;99.90;;;;;;4956839;28;20429;-73
2023/05/04 01:12:20;;;;;;;1.63;1.17;;;12.20;99.90;;;;;;4982526;28;20537;-73
2023/05/04 01:14:48;;;;;;;1.48;1.13;;;12.10;99.90;;;;;;4965568;28;20418;-73
2023/05/04 01:17:15;;;;;;;1.50;1.10;;;12.10;99.90;;;;;;4952110;28;20444;-73
2023/05/04 01:19:41;;;;;;;2.17;1.20;;;12.10;99.90;;;;;;4961042;28;21110;-73
2023/05/04 01:22:07;;;;;;;1.90;1.13;;;12.10;99.90;;;;;;4956362;28;20534;-73
2023/05/04 01:24:34;;;;;;;2.05;1.05;;;12.00;99.90;;;;;;4961284;28;20492;-73
2023/05/04 01:27:19;;;;;;;2.13;1.13;;;12.10;99.90;;;;;;4961055;28;20812;-73
2023/05/04 01:29:58;;;;;;;2.05;1.20;;;12.10;99.90;;;;;;4952196;28;20423;-73
2023/05/04 01:32:30;;;;;;;2.10;1.33;;;12.20;99.90;;;;;;4958417;28;20468;-73
2023/05/04 01:34:57;;;;;;;2.08;1.23;;;12.10;99.90;;;;;;4955220;28;20416;-73
2023/05/04 01:37:24;;;;;;;2.95;1.50;;;12.10;99.90;;;;;;4958868;28;20433;-73
2023/05/04 01:39:50;;;;;;;2.80;1.35;;;12.10;99.90;;;;;;4978309;28;20424;-73
2023/05/04 01:42:16;;;;;;;3.53;1.45;;;12.00;99.90;;;;;;4952997;28;20512;-73
2023/05/04 01:44:43;;;;;;;2.95;1.40;;;12.00;99.90;;;;;;4972638;28;20420;-72
2023/05/04 01:47:09;;;;;;;2.72;1.33;;;12.00;99.90;;;;;;4976514;28;20511;-72
2023/05/04 01:49:35;;;;;;;2.42;1.30;;;12.00;99.90;;;;;;4959386;28;20431;-72
2023/05/04 01:52:01;;;;;;;2.75;1.40;;;11.90;99.90;;;;;;4958027;28;20965;-72
2023/05/04 01:54:27;;;;;;;3.70;1.50;;;11.90;99.90;;;;;;4990083;28;20423;-73
2023/05/04 01:56:54;;;;;;;3.57;1.53;;;12.00;99.90;;;;;;4955712;28;20432;-73
2023/05/04 01:59:20;;;;;;;3.00;1.42;;;11.90;99.90;;;;;;4959976;28;20478;-73
2023/05/04 02:01:46;;;;;;;2.90;1.38;;;11.90;99.90;;;;;;4958250;28;20434;-73
2023/05/04 02:04:12;;;;;;;2.53;1.50;;;11.80;99.90;;;;;;4960896;28;20510;-73
2023/05/04 02:06:38;;;;;;;2.40;1.50;;;11.80;99.90;;;;;;4959085;28;20428;-73
2023/05/04 02:09:05;;;;;;;2.10;1.40;;;11.70;99.90;;;;;;4982599;28;20420;-73
2023/05/04 02:11:31;;;;;;;2.67;1.50;;;11.70;99.90;;;;;;4983831;28;20423;-73
2023/05/04 02:13:57;;;;;;;2.67;1.60;;;11.70;99.90;;;;;;4961687;28;20419;-73
2023/05/04 02:16:23;;;;;;;3.30;1.40;;;11.70;99.90;;;;;;4953794;28;20463;-73
2023/05/04 02:18:49;;;;;;;2.85;1.40;;;11.70;99.90;;;;;;4956526;28;20524;-73
2023/05/04 02:21:16;;;;;;;2.45;1.50;;;11.70;99.90;;;;;;4962089;28;20427;-73
2023/05/04 02:23:42;;;;;;;2.42;1.45;;;11.70;99.90;;;;;;4958885;28;20418;-73
2023/05/04 02:26:08;;;;;;;4.47;1.50;;;11.70;99.90;;;;;;4958978;28;20453;-73
2023/05/04 02:28:34;;;;;;;3.28;1.75;;;11.70;99.90;;;;;;4952795;28;21005;-73
2023/05/04 02:31:01;;;;;;;2.63;1.50;;;11.60;99.90;;;;;;4967499;28;21021;-73
2023/05/04 02:33:27;;;;;;;2.78;1.58;;;11.60;99.90;;;;;;4956860;28;20490;-73
2023/05/04 02:35:53;;;;;;;2.25;1.52;;;11.50;99.90;;;;;;4958790;28;20435;-73
2023/05/04 02:38:19;;;;;;;3.45;1.80;;;11.40;99.90;;;;;;4952684;28;20437;-73
2023/05/04 02:40:46;;;;;;;4.20;1.48;;;11.30;99.90;;;;;;4955740;28;20432;-73
2023/05/04 02:43:12;;;;;;;2.55;1.50;;;11.30;99.90;;;;;;4969199;28;21014;-73
2023/05/04 02:45:38;;;;;;;2.67;1.60;;;11.30;99.90;;;;;;4954917;28;20463;-73
2023/05/04 02:48:04;;;;;;;3.72;1.52;;;11.20;99.90;;;;;;4974397;28;21023;-73
2023/05/04 02:50:31;;;;;;;4.13;1.40;;;11.30;99.90;;;;;;4958995;28;20536;-73
2023/05/04 02:52:57;;;;;;;4.43;1.50;;;11.30;99.90;;;;;;4951938;28;20433;-73
2023/05/04 02:55:23;;;;;;;3.58;1.70;;;11.30;99.90;;;;;;4953511;28;20926;-73
2023/05/04 02:57:49;;;;;;;2.92;1.60;;;11.20;99.90;;;;;;4958316;28;20745;-73
2023/05/04 03:00:16;;;;;;;2.83;1.57;;;11.20;99.90;;;;;;4966218;28;20439;-73
2023/05/04 03:02:42;;;;;;;3.38;1.55;;;11.10;99.90;;;;;;4954455;28;20468;-73
2023/05/04 03:05:09;;;;;;;3.17;1.60;;;11.10;99.90;;;;;;4955833;28;20469;-73
2023/05/04 03:07:35;;;;;;;1.80;1.40;;;11.10;99.90;;;;;;4952298;28;21175;-73
2023/05/04 03:10:02;;;;;;;2.67;1.58;;;11.10;99.90;;;;;;4959105;28;20432;-73
2023/05/04 03:12:28;;;;;;;2.80;1.50;;;11.00;99.90;;;;;;4955629;28;20424;-73
2023/05/04 03:14:55;;;;;;;2.03;1.50;;;11.10;99.90;;;;;;4956353;28;20826;-73
2023/05/04 03:17:21;;;;;;;2.55;1.70;;;11.10;99.90;;;;;;4955733;28;20468;-73
2023/05/04 03:19:47;;;;;;;3.70;1.50;;;11.30;99.90;;;;;;4985623;28;21147;-73
2023/05/04 03:22:13;;;;;;;2.22;1.50;;;11.40;99.90;;;;;;4961956;28;21162;-73
2023/05/04 03:24:39;;;;;;;3.13;1.52;;;11.50;99.90;;;;;;4957483;28;20422;-73
2023/05/04 03:27:06;;;;;;;2.70;1.60;;;11.50;99.90;;;;;;4953940;28;20416;-72
2023/05/04 03:29:32;;;;;;;2.40;1.42;;;11.50;99.90;;;;;;4954103;28;20426;-73
2023/05/04 03:31:58;;;;;;;2.63;1.63;;;11.60;99.90;;;;;;4982605;28;21126;-73
2023/05/04 03:34:25;;;;;;;2.88;1.50;;;11.70;99.90;;;;;;4955670;28;20477;-73
2023/05/04 03:36:51;;;;;;;2.40;1.40;;;11.80;99.90;;;;;;4960292;28;20428;-73
2023/05/04 03:39:17;;;;;;;3.30;1.60;;;11.80;99.90;;;;;;4958729;28;20430;-73
2023/05/04 03:41:44;;;;;;;1.80;1.30;;;11.80;99.90;;;;;;4974942;28;20410;-73
2023/05/04 03:44:10;;;;;;;2.63;1.50;;;11.90;99.90;;;;;;4954355;28;20430;-73
2023/05/04 03:46:36;;;;;;;1.77;1.40;;;11.90;99.90;;;;;;4958446;28;20885;-73
2023/05/04 03:49:02;;;;;;;3.10;1.70;;;11.90;99.90;;;;;;4957106;28;20513;-73
2023/05/04 03:51:28;;;;;;;3.53;1.70;;;12.00;99.90;;;;;;4958153;28;20847;-73
2023/05/04 03:53:55;;;;;;;2.65;1.60;;;12.00;99.90;;;;;;4965920;28;20512;-73
2023/05/04 03:56:21;;;;;;;2.50;1.55;;;12.10;99.90;;;;;;4984965;28;20419;-73
2023/05/04 03:58:47;;;;;;;1.95;1.60;;;12.10;99.90;;;;;;4959037;28;21010;-73
2023/05/04 04:01:13;;;;;;;3.13;1.60;;;12.10;99.90;;;;;;4960779;28;20432;-73
2023/05/04 04:03:40;;;;;;;1.60;1.50;;;12.20;99.90;;;;;;4951109;28;20527;-73
2023/05/04 04:06:09;;;;;;;2.88;1.60;;;12.30;99.90;;;;;;4968960;28;20415;-73
2023/05/04 04:08:36;;;;;;;2.85;1.50;;;12.40;99.90;;;;;;4944738;28;20428;-73
2023/05/04 04:11:02;;;;;;;2.20;1.60;;;12.40;99.90;;;;;;4960900;28;20435;-73
2023/05/04 04:13:28;;;;;;;3.03;1.60;;;12.40;99.90;;;;;;4950660;28;20930;-73
2023/05/04 04:15:55;;;;;;;2.42;1.40;;;12.60;99.90;;;;;;4979513;28;20480;-73
2023/05/04 04:18:23;;;;;;;2.85;1.63;;;12.70;99.90;;;;;;4954654;28;20420;-73
2023/05/04 04:20:50;;;;;;;2.60;1.63;;;12.80;99.90;;;;;;4954229;28;20480;-73
2023/05/04 04:23:18;;;;;;;2.90;1.58;;;12.90;99.90;;;;;;4953336;28;20441;-73
2023/05/04 04:25:47;;;;;;;2.42;1.60;;;13.00;99.90;;;;;;4972828;28;20424;-73
2023/05/04 04:28:14;;;;;;;2.80;1.50;;;13.00;99.90;;;;;;4987558;28;20412;-73
2023/05/04 04:30:41;;;;;;;3.80;1.60;;;13.10;99.90;;;;;;4958232;28;20509;-73
2023/05/04 04:33:08;;;;;;;3.58;1.60;;;13.30;99.90;;;;;;4959991;28;20424;-73
2023/05/04 04:35:35;;;;;;;2.15;1.60;;;13.30;99.90;;;;;;4957565;28;20424;-73
2023/05/04 04:38:02;;;;;;;2.90;1.70;;;13.50;99.90;;;;;;4974853;28;20457;-73
2023/05/04 04:40:28;;;;;;;3.25;1.70;;;13.50;99.90;;;;;;4976390;28;20474;-73
2023/05/04 04:42:55;;;;;;;2.57;1.47;;;13.60;99.90;;;;;;4955404;28;21052;-73
2023/05/04 04:45:21;;;;;;;2.38;1.50;;;13.70;99.90;;;;;;4957930;28;20425;-73
2023/05/04 04:47:47;;;;;;;3.50;1.80;;;13.80;99.90;;;;;;4954877;28;20413;-73
2023/05/04 04:50:14;;;;;;;3.67;1.60;;;13.80;99.90;;;;;;4971682;28;20424;-73
2023/05/04 04:52:40;;;;;;;2.17;1.65;;;13.90;99.90;;;;;;4970913;28;20422;-73
2023/05/04 04:55:07;;;;;;;2.10;1.50;;;14.00;99.90;;;;;;4976831;28;20824;-73
2023/05/04 04:57:33;;;;;;;2.90;1.65;;;14.00;99.90;;;;;;4954881;28;20426;-73
2023/05/04 04:59:59;;;;;;;3.28;1.70;;;14.10;99.90;;;;;;4957388;28;20424;-73
2023/05/04 05:02:27;;;;;;;1.95;1.60;;;14.30;99.90;;;;;;4971249;28;20416;-73
2023/05/04 05:04:53;;;;;;;1.70;1.50;;;14.30;99.90;;;;;;4955658;28;20907;-73
2023/05/04 05:07:19;;;;;;;2.13;1.50;;;14.30;99.90;;;;;;4940161;28;20524;-73
2023/05/04 05:09:46;;;;;;;2.13;1.55;;;14.30;99.90;;;;;;4949277;28;20424;-73
2023/05/04 05:12:12;;;;;;;2.63;1.60;;;14.40;99.90;;;;;;4959147;28;20427;-73
2023/05/04 05:14:38;;;;;;;2.08;1.70;;;14.40;99.90;;;;;;4963521;28;20518;-73
2023/05/04 05:17:04;;;;;;;3.33;1.60;;;14.40;99.90;;;;;;4960149;28;20428;-73
2023/05/04 05:19:35;;;;;;;2.40;1.60;;;14.50;99.90;;;;;;4957981;28;20430;-73
2023/05/04 05:22:05;;;;;;;2.47;1.58;;;14.50;99.90;;;;;;4959439;28;20427;-73
2023/05/04 05:24:31;;;;;;;2.65;1.60;;;14.50;99.90;;;;;;4958490;28;20907;-73
2023/05/04 05:26:58;;;;;;;2.38;1.52;;;14.50;99.90;;;;;;4959219;28;20827;-73
2023/05/04 05:29:25;;;;;;;3.47;1.67;;;14.50;99.90;;;;;;4954559;28;20547;-73
2023/05/04 05:31:51;;;;;;;2.05;1.60;;;14.50;99.90;;;;;;4964226;28;20424;-73
2023/05/04 05:34:17;;;;;;;2.47;1.58;;;14.60;99.90;;;;;;4975588;28;21054;-73
2023/05/04 05:36:44;;;;;;;3.70;1.50;;;14.70;99.90;;;;;;4959865;28;21029;-73
2023/05/04 05:39:11;;;;;;;4.07;1.50;;;14.70;99.90;;;;;;4984757;28;20426;-73
2023/05/04 05:41:37;;;;;;;2.45;1.50;;;14.80;99.90;;;;;;4984263;28;20433;-73
2023/05/04 05:44:03;;;;;;;5.75;1.50;;;14.90;99.90;;;;;;4974498;28;21044;-73
2023/05/04 05:46:29;;;;;;;2.58;1.40;;;15.00;99.90;;;;;;4963420;28;20422;-73
2023/05/04 05:48:56;;;;;;;3.85;1.58;;;15.00;99.90;;;;;;4977546;28;20418;-73
2023/05/04 05:51:22;;;;;;;3.92;1.65;;;15.20;99.90;;;;;;4958571;28;20431;-73
2023/05/04 05:53:48;;;;;;;4.57;1.60;;;15.20;99.90;;;;;;4940974;28;21022;-73
2023/05/04 05:56:14;;;;;;;1.67;1.50;;;15.30;99.90;;;;;;4960873;28;21176;-73
2023/05/04 05:58:41;;;;;;;2.28;1.42;;;15.40;99.90;;;;;;4952189;28;20417;-73
2023/05/04 06:01:07;;;;;;;3.78;1.60;;;15.50;99.90;;;;;;4961375;28;20493;-73
2023/05/04 06:03:33;;;;;;;2.80;1.33;;;15.50;99.90;;;;;;4952509;28;20427;-73
2023/05/04 06:05:59;;;;;;;2.43;1.40;;;15.70;99.90;;;;;;4952790;28;20404;-73
2023/05/04 06:08:25;;;;;;;2.78;1.60;;;15.80;99.90;;;;;;4959843;28;20511;-73
2023/05/04 06:10:53;;;;;;;3.10;1.63;;;15.80;99.90;;;;;;4969870;28;21002;-73
2023/05/04 06:13:19;;;;;;;3.25;1.42;;;15.90;99.90;;;;;;4953937;28;20428;-73
2023/05/04 06:15:52;;;;;;;2.65;1.40;;;16.00;99.90;;;;;;4960779;28;20493;-73
2023/05/04 06:18:19;;;;;;;2.60;1.50;;;16.20;99.90;;;;;;4959675;28;20432;-73
2023/05/04 06:20:46;;;;;;;2.67;1.33;;;16.20;99.90;;;;;;4958152;28;20456;-73
2023/05/04 06:23:13;;;;;;;3.80;1.63;;;16.40;99.90;;;;;;5042847;28;20416;-73
2023/05/04 06:25:40;;;;;;;3.47;1.50;;;16.50;99.90;;;;;;4974854;28;20463;-73
2023/05/04 06:28:06;;;;;;;3.08;1.70;;;16.60;99.90;;;;;;4960308;28;20427;-73
2023/05/04 06:30:33;;;;;;;3.35;1.50;;;16.80;99.90;;;;;;4956507;28;20418;-73
2023/05/04 06:32:59;;;;;;;2.00;1.42;;;16.90;99.90;;;;;;4987745;28;20555;-73
2023/05/04 06:35:25;;;;;;;3.17;1.50;;;17.00;99.90;;;;;;4953538;28;20420;-73
2023/05/04 06:37:51;;;;;;;2.67;1.45;;;17.20;99.90;;;;;;4979667;28;20522;-73
2023/05/04 06:40:18;;;;;;;2.67;1.50;;;17.30;99.90;;;;;;4956637;28;20896;-73
2023/05/04 06:42:44;;;;;;;2.10;1.40;;;17.40;99.90;;;;;;4956590;28;20420;-73
2023/05/04 06:45:11;;;;;;;2.50;1.50;;;17.50;99.90;;;;;;4961409;28;20461;-73
2023/05/04 06:47:37;;;;;;;3.60;1.40;;;17.50;99.90;;;;;;4959773;28;20464;-73
2023/05/04 06:50:09;;;;;;;1.85;1.27;;;17.60;99.90;;;;;;4960501;28;21985;-73
2023/05/04 06:52:39;;;;;;;2.17;1.50;;;17.70;99.90;;;;;;4957555;28;20412;-73
2023/05/04 06:55:07;;;;;;;4.30;1.42;;;17.60;99.90;;;;;;4960133;28;20419;-73
2023/05/04 06:57:33;;;;;;;2.90;1.30;;;17.70;99.90;;;;;;4961596;28;20508;-73
2023/05/04 06:59:59;;;;;;;3.80;1.50;;;17.70;99.90;;;;;;4975946;28;20905;-73
2023/05/04 07:02:25;;;;;;;4.78;1.38;;;17.90;99.90;;;;;;4955652;28;20455;-73
2023/05/04 07:04:52;;;;;;;3.03;1.40;;;18.10;99.90;;;;;;4958403;28;20934;-73
2023/05/04 07:07:19;;;;;;;3.03;1.35;;;18.30;99.90;;;;;;4970479;28;20416;-73
2023/05/04 07:09:49;;;;;;;3.85;1.50;;;18.40;99.90;;;;;;4959824;28;20866;-73
2023/05/04 07:12:15;;;;;;;2.60;1.52;;;18.50;99.90;;;;;;4982215;28;20462;-73
2023/05/04 07:14:41;;;;;;;2.70;1.33;;;18.60;99.90;;;;;;4961929;28;20427;-73
2023/05/04 07:17:09;;;;;;;4.43;1.40;;;18.70;99.90;;;;;;4956199;28;20928;-73
2023/05/04 07:19:35;;;;;;;3.70;1.50;;;18.90;99.90;;;;;;4957360;28;20414;-73
2023/05/04 07:22:02;;;;;;;2.72;1.50;;;19.00;99.90;;;;;;4960211;28;20433;-73
2023/05/04 07:24:31;;;;;;;1.85;1.40;;;19.10;99.90;;;;;;4963750;28;20448;-73
2023/05/04 07:26:57;;;;;;;2.70;1.40;;;19.40;99.90;;;;;;4961939;28;20519;-73
2023/05/04 07:29:23;;;;;;;2.40;1.20;;;19.60;99.90;;;;;;4953987;28;20442;-73
2023/05/04 07:31:50;;;;;;;3.20;1.37;;;19.60;99.90;;;;;;4971475;28;20432;-73
2023/05/04 07:34:16;;;;;;;2.90;1.30;;;19.80;99.90;;;;;;4960773;28;20418;-73
2023/05/04 07:36:42;;;;;;;2.90;1.48;;;19.80;99.90;;;;;;4986594;28;20433;-73
2023/05/04 07:39:08;;;;;;;2.42;1.30;;;19.90;99.90;;;;;;4957178;28;20437;-73
2023/05/04 07:41:35;;;;;;;2.70;1.38;;;19.80;99.90;;;;;;4959135;28;20469;-73
2023/05/04 07:44:04;;;;;;;3.42;1.30;;;19.90;99.90;;;;;;4962116;28;20446;-73
2023/05/04 07:46:30;;;;;;;3.13;1.50;;;19.80;99.90;;;;;;4954191;28;20429;-73
2023/05/04 07:48:56;;;;;;;2.63;1.50;;;19.90;99.90;;;;;;4960077;28;20424;-73
2023/05/04 07:51:22;;;;;;;2.67;1.33;;;19.90;99.90;;;;;;4961578;28;20547;-73
2023/05/04 07:53:49;;;;;;;12.63;1.75;;;20.00;99.90;;;;;;4941628;28;20418;-73
2023/05/04 07:56:15;;;;;;;2.50;1.40;;;20.00;99.90;;;;;;4954055;28;20482;-73
2023/05/04 08:25:12;;;;;;;2.45;1.45;;;20.60;99.90;;;;;;5054394;28;20744;-72
2023/05/04 08:27:39;;;;;;;2.30;1.50;;;21.50;99.90;;;;;;5024870;28;20422;-72
2023/05/04 08:30:06;;;;;;;2.40;1.40;;;21.50;99.90;;;;;;5026297;28;20505;-72
2023/05/04 08:32:32;;;;;;;3.90;1.50;;;21.80;99.90;;;;;;5034845;28;20438;-72
2023/05/04 08:34:58;;;;;;;2.25;1.30;;;21.90;99.90;;;;;;5060014;28;20522;-72
2023/05/04 08:37:26;;;;;;;2.40;1.27;;;22.00;99.90;;;;;;5041371;28;20435;-72
2023/05/04 08:39:52;;;;;;;1.70;1.30;;;22.00;99.90;;;;;;5051977;28;20420;-72
2023/05/04 08:42:30;;;;;;;2.92;1.52;;;22.10;99.90;;;;;;5029797;28;21065;-72
2023/05/04 08:44:57;;;;;;;1.95;1.40;;;22.30;99.90;;;;;;5027356;28;21058;-72
2023/05/04 08:47:26;;;;;;;1.83;1.27;;;22.40;99.90;;;;;;5029738;28;20425;-72
2023/05/04 08:49:55;;;;;;;2.23;1.27;;;22.60;99.90;;;;;;5031306;28;20505;-72
2023/05/04 08:52:26;;;;;;;4.03;1.35;;;22.70;99.90;;;;;;5031714;28;20428;-72
2023/05/04 08:54:55;;;;;;;1.67;1.30;;;22.90;99.90;;;;;;5031182;28;20425;-72
2023/05/04 08:57:26;;;;;;;2.53;1.30;;;23.00;99.70;;;;;;5047882;28;20509;-73
2023/05/04 08:59:54;;;;;;;2.80;1.40;;;23.30;99.90;;;;;;5029203;28;20477;-72
2023/05/04 09:02:23;;;;;;;1.73;1.23;;;23.40;99.90;;;;;;5045400;28;20455;-72
2023/05/04 09:04:51;;;;;;;2.90;1.30;;;23.60;99.60;;;;;;5026520;28;20414;-72
2023/05/04 09:07:19;;;;;;;3.22;1.35;;;23.80;99.90;;;;;;5019824;28;20552;-72
2023/05/04 09:09:47;;;;;;;1.73;1.20;;;23.90;99.90;;;;;;5024330;28;20429;-72
2023/05/04 09:12:14;;;;;;;1.92;1.20;;;24.00;99.60;;;;;;5024913;28;20930;-72
2023/05/04 09:14:40;;;;;;;2.10;1.20;;;24.10;99.10;;;;;;5028399;28;20423;-72
2023/05/04 09:17:26;;;;;;;2.25;1.25;;;24.30;99.10;;;;;;5026799;28;20441;-72
2023/05/04 09:20:01;;;;;;;2.38;1.20;;;24.40;98.20;;;;;;5028818;28;20485;-72
2023/05/04 09:22:28;;;;;;;2.53;1.50;;;24.50;99.00;;;;;;5029590;28;20470;-72
2023/05/04 09:25:12;;;;;;;5.00;1.70;;;24.70;99.90;;;;;;5022758;28;20515;-72
2023/05/04 09:27:41;;;;;;;2.83;1.38;;;24.80;99.90;;;;;;5022260;28;20510;-72
2023/05/04 09:30:08;;;;;;;2.28;1.40;;;24.90;99.90;;;;;;5027062;28;20919;-73
2023/05/04 09:32:48;;;;;;;4.65;1.35;;;25.00;99.90;;;;;;5047606;28;20415;-72
2023/05/04 09:35:18;;;;;;;2.50;1.30;;;25.20;99.90;;;;;;5012508;28;20960;-72
2023/05/04 09:37:45;;;;;;;2.45;1.23;;;25.30;99.20;;;;;;5017209;28;20432;-72
2023/05/04 09:40:13;;;;;;;5.10;1.40;;;25.40;99.90;;;;;;5039032;28;20421;-72
2023/05/04 09:42:40;;;;;;;2.70;1.50;;;25.50;99.10;;;;;;5005748;28;20514;-72
2023/05/04 09:45:09;;;;;;;3.03;1.60;;;25.70;99.90;;;;;;5029551;28;20807;-72
2023/05/04 09:47:39;;;;;;;3.53;1.60;;;25.80;99.90;;;;;;5013729;28;20421;-72
2023/05/04 09:50:22;;;;;;;3.63;1.80;;;25.80;99.90;;;;;;5006935;28;20435;-72
2023/05/04 09:52:49;;;;;;;4.38;1.63;;;25.80;99.90;;;;;;5015160;28;20800;-73
2023/05/04 09:55:18;;;;;;;3.30;1.60;;;26.00;99.90;;;;;;5024070;28;20430;-72
2023/05/04 09:57:48;;;;;;;3.88;1.80;;;26.00;99.90;;;;;;5010775;28;20436;-72
2023/05/04 10:00:16;;;;;;;4.73;1.80;;;26.00;99.90;;;;;;5001356;28;20409;-72
2023/05/04 10:02:45;;;;;;;4.00;1.85;;;26.00;99.90;;;;;;5015387;28;20457;-73
2023/05/04 10:05:16;;;;;;;5.90;1.77;;;26.10;99.90;;;;;;5012226;28;20846;-72
2023/05/04 10:07:43;;;;;;;3.00;1.70;;;26.20;99.90;;;;;;5029234;28;20451;-73
2023/05/04 10:10:13;;;;;;;3.50;1.60;;;26.30;99.90;;;;;;5036048;28;21134;-72
2023/05/04 10:12:40;;;;;;;5.00;1.77;;;26.20;99.90;;;;;;5016916;28;20433;-72
2023/05/04 10:15:16;;;;;;;5.13;1.80;;;26.30;99.90;;;;;;5002643;28;21006;-72
2023/05/04 10:18:09;;;;;;;4.03;1.52;;;26.20;99.90;;;;;;5028013;28;20426;-72
2023/05/04 10:21:14;;;;;;;3.88;1.67;;;26.00;99.90;;;;;;5012354;28;20422;-73
2023/05/04 10:24:38;;;;;;;2.28;1.40;;;26.10;99.90;;;;;;5020550;28;20433;-73
2023/05/04 10:27:16;;;;;;;4.00;1.95;;;26.00;99.90;;;;;;5016734;28;20478;-72
2023/05/04 10:29:49;;;;;;;4.07;2.10;;;26.00;99.90;;;;;;5012601;28;20451;-73
2023/05/04 10:32:22;;;;;;;3.43;1.80;;;26.00;99.90;;;;;;5047575;28;20430;-72
2023/05/04 10:34:50;;;;;;;4.53;1.80;;;26.00;99.90;;;;;;5019683;28;20842;-73
2023/05/04 10:37:19;;;;;;;4.35;1.88;;;26.10;99.90;;;;;;5018379;28;20485;-73
2023/05/04 10:39:53;;;;;;;4.67;1.80;;;26.10;99.90;;;;;;5016874;28;21154;-73
2023/05/04 10:42:20;;;;;;;2.80;1.60;;;26.00;99.90;;;;;;5021105;28;21003;-73
2023/05/04 10:44:55;;;;;;;5.63;1.85;;;26.00;99.90;;;;;;5015431;28;20495;-72
2023/05/04 10:47:39;;;;;;;4.57;1.90;;;26.00;99.90;;;;;;5015953;28;21010;-72
2023/05/04 10:50:13;;;;;;;4.95;1.90;;;25.90;99.90;;;;;;5016907;28;20415;-72
2023/05/04 10:52:52;;;;;;;3.22;1.50;;;25.80;99.90;;;;;;5030042;28;20899;-73
2023/05/04 10:55:21;;;;;;;3.58;1.60;;;25.80;99.70;;;;;;5012166;28;20941;-72
2023/05/04 10:57:56;;;;;;;2.25;1.63;;;25.80;99.60;;;;;;5013726;28;20839;-72
2023/05/04 11:00:34;;;;;;;3.65;1.70;;;25.90;99.80;;;;;;5004857;28;20422;-72
2023/05/04 11:03:08;;;;;;;2.33;1.40;;;25.90;99.70;;;;;;5014367;28;20513;-72
2023/05/04 11:05:46;;;;;;;3.58;1.70;;;25.90;98.10;;;;;;5012683;28;21072;-72
2023/05/04 11:08:25;;;;;;;2.72;1.50;;;25.90;98.10;;;;;;5015184;28;20440;-73
2023/05/04 11:11:06;;;;;;;5.40;1.75;;;25.90;98.80;;;;;;5036893;28;20417;-72
2023/05/04 11:13:46;;;;;;;3.95;1.70;;;25.90;99.90;;;;;;5013233;28;20869;-73
2023/05/04 11:16:21;;;;;;;3.55;1.50;;;25.90;99.90;;;;;;5020474;28;20450;-72
2023/05/04 11:18:48;;;;;;;4.22;1.60;;;25.90;99.50;;;;;;5051901;28;20421;-72
2023/05/04 11:21:26;;;;;;;4.10;1.60;;;25.90;99.40;;;;;;5023720;28;20927;-73
2023/05/04 11:23:57;;;;;;;6.07;1.77;;;25.90;99.00;;;;;;5002215;28;21001;-73
2023/05/04 11:26:25;;;;;;;2.87;1.67;;;25.90;99.00;;;;;;5043994;28;20415;-73
2023/05/04 11:28:52;;;;;;;2.88;1.58;;;26.00;99.60;;;;;;5011701;28;20416;-73
2023/05/04 11:31:20;;;;;;;4.10;1.65;;;25.90;99.50;;;;;;5007902;28;20545;-72
2023/05/04 11:33:54;;;;;;;2.78;1.70;;;25.90;99.20;;;;;;5036954;28;20423;-72
2023/05/04 11:36:21;;;;;;;2.58;1.50;;;25.80;99.70;;;;;;5010284;28;20485;-72
2023/05/04 11:38:49;;;;;;;3.77;1.90;;;25.80;99.60;;;;;;5022145;28;21083;-72
2023/05/04 11:41:15;;;;;;;3.58;1.58;;;25.80;98.70;;;;;;5021664;28;20425;-72
2023/05/04 11:43:45;;;;;;;3.35;1.70;;;25.80;99.60;;;;;;5019243;28;20455;-72
2023/05/04 11:46:13;;;;;;;4.85;1.70;;;25.70;99.90;;;;;;5020032;28;20408;-72
2023/05/04 11:48:40;;;;;;;5.63;1.60;;;25.70;99.90;;;;;;5025501;28;20504;-72
2023/05/04 11:51:06;;;;;;;3.13;1.60;;;25.70;99.90;;;;;;5034424;28;20786;-72
2023/05/04 11:53:40;;;;;;;3.25;1.70;;;25.70;99.90;;;;;;5019191;28;20441;-73
2023/05/04 11:56:07;;;;;;;4.00;1.60;;;25.60;99.90;;;;;;5043155;28;20421;-72
2023/05/04 11:58:34;;;;;;;5.47;1.70;;;25.60;99.90;;;;;;5019227;28;20485;-72
2023/05/04 12:01:02;;;;;;;4.03;1.50;;;25.50;99.30;;;;;;4994864;28;20507;-72
2023/05/04 12:03:33;;;;;;;2.40;1.50;;;25.50;99.60;;;;;;5011260;28;20420;-72
2023/05/04 12:06:01;;;;;;;3.30;1.50;;;25.40;99.90;;;;;;5018536;28;20996;-73
2023/05/04 12:08:40;;;;;;;4.57;1.58;;;25.50;99.90;;;;;;5020870;28;20504;-73
2023/05/04 12:11:24;;;;;;;3.90;1.70;;;25.40;99.80;;;;;;5018372;28;20414;-73
2023/05/04 12:14:12;;;;;;;5.63;1.60;;;25.40;99.90;;;;;;5024269;28;20761;-73
2023/05/04 12:16:41;;;;;;;4.63;1.70;;;25.40;99.90;;;;;;5016326;28;20408;-73
2023/05/04 12:19:11;;;;;;;6.65;1.70;;;25.40;99.90;;;;;;5022758;28;20438;-73
2023/05/04 12:21:52;;;;;;;4.73;1.70;;;25.40;99.90;;;;;;5015501;28;20412;-73
2023/05/04 12:24:22;;;;;;;4.03;1.80;;;25.50;99.90;;;;;;5018364;28;20422;-73
2023/05/04 12:26:49;;;;;;;2.53;1.40;;;25.40;99.90;;;;;;5018102;28;20417;-72
2023/05/04 12:29:16;;;;;;;3.58;1.85;;;25.40;99.90;;;;;;5011525;28;20443;-73
2023/05/04 12:31:42;;;;;;;4.50;1.95;;;25.40;99.90;;;;;;5046695;28;20433;-72
2023/05/04 12:34:08;;;;;;;5.25;1.80;;;25.30;99.90;;;;;;5023112;28;20416;-73
2023/05/04 12:36:35;;;;;;;6.60;1.95;;;25.30;99.90;;;;;;5006012;28;20430;-73
2023/05/04 12:39:01;;;;;;;3.72;1.80;;;25.30;99.90;;;;;;5005653;28;20424;-72
2023/05/04 12:41:27;;;;;;;4.05;1.75;;;25.30;99.90;;;;;;5021846;28;20767;-72
2023/05/04 12:43:54;;;;;;;4.40;2.17;;;25.30;99.90;;;;;;5011705;28;20421;-71
2023/05/04 12:46:21;;;;;;;3.70;1.75;;;25.30;99.90;;;;;;5018734;28;20417;-71
2023/05/04 12:48:47;;;;;;;4.22;2.00;;;25.30;99.90;;;;;;5027374;28;20402;-71
2023/05/04 12:51:14;;;;;;;4.97;1.63;;;25.30;99.90;;;;;;5016372;28;20927;-71
2023/05/04 12:53:41;;;;;;;4.30;2.00;;;25.20;99.90;;;;;;5012724;28;20435;-71
2023/05/04 12:56:07;;;;;;;4.32;1.88;;;25.20;99.90;;;;;;5034979;28;20977;-71
2023/05/04 12:58:33;;;;;;;4.22;1.67;;;25.20;99.90;;;;;;5020909;28;20431;-71
2023/05/04 13:00:59;;;;;;;5.10;1.80;;;25.30;99.90;;;;;;5022861;28;20454;-71
2023/05/04 13:03:26;;;;;;;3.03;1.67;;;25.30;99.90;;;;;;5023148;28;20904;-71
2023/05/04 13:05:52;;;;;;;5.50;1.90;;;25.30;99.90;;;;;;5022627;28;20857;-71
2023/05/04 13:08:18;;;;;;;6.20;1.80;;;25.20;99.90;;;;;;5021765;28;20413;-71
2023/05/04 13:10:46;;;;;;;3.60;1.55;;;25.20;99.90;;;;;;5020479;28;20415;-71
2023/05/04 13:13:14;;;;;;;4.70;1.83;;;25.20;99.90;;;;;;5005457;28;20419;-71
2023/05/04 13:15:42;;;;;;;3.90;2.03;;;25.10;99.90;;;;;;5004829;28;20409;-71
2023/05/04 13:18:09;;;;;;;6.60;1.90;;;25.10;99.90;;;;;;5018830;28;21005;-71
2023/05/04 13:20:35;;;;;;;2.85;1.65;;;25.10;99.90;;;;;;5050704;28;20416;-71
2023/05/04 13:23:01;;;;;;;3.00;1.77;;;25.20;99.40;;;;;;5020846;28;20452;-71